New Orleans Nas Jrb/Alvin Callender Field/ Airport
KNBG : now visible

Airfield :











YOU CAN JOIN US ON...

 
LOGIN :

Register | Disclaimer

   EN    FR    IT 

 









Legend :    VFR   Marginal VFR   IFR   Intensive IFR   Very Intensive IFR
Visi :
Ceiling :
>= 8 km
>= 3000ft
5 to 8 km
1000 to 3000 ft
1500m to 5 km
500 to 1000 ft
800 to 1500m
200 to 500 ft
< 800m
< 200 ft
Symbols :   Thunderstorms  Fog  Heavy snow  Heavy precipitations  Wind > 20 kt






- Airport Elevation : 2 ft


KNBG - New Orleans Nas Jrb/Alvin Callender Field/

CURRENT METAR :
  • 061555Z 18010KT 10SM BKN030 BKN075 OVC250 23/18 A3011 RMK AO2 SLP197 T02280178 $

EXPIRED METARs :
  • 061455Z 18005KT 10SM FEW030 BKN037 BKN250 20/17 A3011 RMK AO2 SLP197 T02000172 53009 $
  • 061355Z 15005KT 7SM FEW030 SCT065 BKN250 17/16 A3010 RMK AO2 SLP192 T01670156 $

TAF TAF KNBG
Valid from the 06 at 15:00 until the 07 at 15:00 UTC


0615/0715 18008KT 9999 SCT025CB BKN040 BKN065 BKN250 QNH3005INS
TEMPO 0616/0620 VRB20G30KT 3200 TSRA BR BKN015CB BKN025 OVC050
BECMG 0621/0623 36006KT 9000 BR VCSH SCT015 SCT030 BKN080 BKN250 QNH3003INS
TEMPO 0701/0707 VRB05KT 4800 -RA BR BKN012 OVC030
BECMG 0707/0709 36008KT 8000 BR BKN015 OVC030 QNH3012INS T24/0618Z T14/0712Z FN20039



MET'MAP, your aeronautical weather chart ! - Copyright ORBIFLY December 2007 - Disclaimer

ORBIFLY MET'MAP TEAM :

Programming & Development : Alexandra Zaïnal
Concept & original design : Baudouin d'Aumeries
Assistance for programming : Marc-Olivier Méhu
Technical & hardware support : Manuel Goepfert

Contact : metmap@orbifly.com




SOURCES & CREDITS :

   NOAA       Earth
Advisory